Leslieville, Canada
Current Conditions -  °F | °C
As of 6:00 AM on Thursday 23 Oct 2014 (Local Time) from CYQF Reporting Station
Clear Clear  
Wind Chill: 39°   Ceiling: Unl
Heat Index: 39°   Visibility: 15mi
Dew Point: 32°   Wind: 3mph
Humidity: 75%   Direction: 220°SW
Pressure: 29.47"   Gusts: NA
Location:  52.38°N, 114.6°W
Report Text: CYQF 231200Z 22003KT 15SM SKC 04/00 A2947 RMK SLP998
Loading
Personal Weather Stations






























Interactive Weather Map
Tropical Storm Tracking
New forecast layout! Learn more

10-Day Weather Forecast

Advertisements
Track Severe Weather on mobile